sensor_id;sensor_type;location;lat;lon;timestamp;P1;durP1;ratioP1;P2;durP2;ratioP2
36585;SDS011;22591;48.314;11.562;2022-11-10T00:01:56;19.55;;;16.40;;
36585;SDS011;22591;48.314;11.562;2022-11-10T00:04:22;18.83;;;16.77;;
36585;SDS011;22591;48.314;11.562;2022-11-10T00:06:47;19.45;;;17.35;;
36585;SDS011;22591;48.314;11.562;2022-11-10T00:09:13;18.92;;;16.77;;
36585;SDS011;22591;48.314;11.562;2022-11-10T00:11:39;20.73;;;18.48;;
36585;SDS011;22591;48.314;11.562;2022-11-10T00:14:05;20.67;;;18.25;;
36585;SDS011;22591;48.314;11.562;2022-11-10T00:16:50;19.42;;;17.42;;
36585;SDS011;22591;48.314;11.562;2022-11-10T00:19:31;19.58;;;17.13;;
36585;SDS011;22591;48.314;11.562;2022-11-10T00:22:00;21.25;;;17.20;;
36585;SDS011;22591;48.314;11.562;2022-11-10T00:24:27;22.83;;;18.48;;
36585;SDS011;22591;48.314;11.562;2022-11-10T00:26:53;22.60;;;19.13;;
36585;SDS011;22591;48.314;11.562;2022-11-10T00:29:19;26.25;;;20.02;;
36585;SDS011;22591;48.314;11.562;2022-11-10T00:31:45;27.80;;;21.42;;
36585;SDS011;22591;48.314;11.562;2022-11-10T00:34:12;26.33;;;20.45;;
36585;SDS011;22591;48.314;11.562;2022-11-10T00:36:39;25.17;;;20.65;;
36585;SDS011;22591;48.314;11.562;2022-11-10T00:39:05;25.98;;;21.25;;
36585;SDS011;22591;48.314;11.562;2022-11-10T00:41:31;26.55;;;20.83;;
36585;SDS011;22591;48.314;11.562;2022-11-10T00:43:57;26.10;;;22.38;;
36585;SDS011;22591;48.314;11.562;2022-11-10T00:46:22;26.27;;;20.75;;
36585;SDS011;22591;48.314;11.562;2022-11-10T00:48:48;34.60;;;24.02;;
36585;SDS011;22591;48.314;11.562;2022-11-10T00:51:19;27.55;;;21.48;;
36585;SDS011;22591;48.314;11.562;2022-11-10T00:53:47;24.08;;;18.65;;
36585;SDS011;22591;48.314;11.562;2022-11-10T00:56:13;23.55;;;18.15;;
36585;SDS011;22591;48.314;11.562;2022-11-10T00:58:38;21.45;;;17.55;;
36585;SDS011;22591;48.314;11.562;2022-11-10T01:01:04;22.73;;;17.33;;
36585;SDS011;22591;48.314;11.562;2022-11-10T01:03:30;19.48;;;16.15;;
36585;SDS011;22591;48.314;11.562;2022-11-10T01:05:57;19.67;;;16.52;;
36585;SDS011;22591;48.314;11.562;2022-11-10T01:08:22;18.90;;;15.68;;
36585;SDS011;22591;48.314;11.562;2022-11-10T01:10:48;17.88;;;15.38;;
36585;SDS011;22591;48.314;11.562;2022-11-10T01:13:14;20.27;;;17.35;;
36585;SDS011;22591;48.314;11.562;2022-11-10T01:15:39;19.67;;;16.23;;
36585;SDS011;22591;48.314;11.562;2022-11-10T01:18:05;20.80;;;17.83;;
36585;SDS011;22591;48.314;11.562;2022-11-10T01:20:31;21.90;;;17.65;;
36585;SDS011;22591;48.314;11.562;2022-11-10T01:22:58;21.75;;;17.85;;
36585;SDS011;22591;48.314;11.562;2022-11-10T01:25:23;22.85;;;18.92;;
36585;SDS011;22591;48.314;11.562;2022-11-10T01:27:49;23.77;;;18.67;;
36585;SDS011;22591;48.314;11.562;2022-11-10T01:30:15;23.80;;;18.58;;
36585;SDS011;22591;48.314;11.562;2022-11-10T01:32:42;30.70;;;21.33;;
36585;SDS011;22591;48.314;11.562;2022-11-10T01:35:08;27.58;;;21.05;;
36585;SDS011;22591;48.314;11.562;2022-11-10T01:37:34;33.17;;;21.80;;
36585;SDS011;22591;48.314;11.562;2022-11-10T01:39:59;33.42;;;22.77;;
36585;SDS011;22591;48.314;11.562;2022-11-10T01:42:26;36.97;;;24.05;;
36585;SDS011;22591;48.314;11.562;2022-11-10T01:45:45;38.80;;;24.15;;
36585;SDS011;22591;48.314;11.562;2022-11-10T01:48:04;41.42;;;25.00;;
36585;SDS011;22591;48.314;11.562;2022-11-10T01:50:33;42.45;;;24.98;;
36585;SDS011;22591;48.314;11.562;2022-11-10T01:53:03;42.58;;;26.15;;
36585;SDS011;22591;48.314;11.562;2022-11-10T01:55:33;40.78;;;26.45;;
36585;SDS011;22591;48.314;11.562;2022-11-10T01:58:01;46.13;;;28.10;;
36585;SDS011;22591;48.314;11.562;2022-11-10T02:00:29;46.13;;;27.38;;
36585;SDS011;22591;48.314;11.562;2022-11-10T02:03:03;50.75;;;29.02;;
36585;SDS011;22591;48.314;11.562;2022-11-10T02:05:52;54.90;;;30.90;;
36585;SDS011;22591;48.314;11.562;2022-11-10T02:08:19;55.10;;;31.65;;
36585;SDS011;22591;48.314;11.562;2022-11-10T02:10:46;55.97;;;30.27;;
36585;SDS011;22591;48.314;11.562;2022-11-10T02:13:12;59.65;;;32.17;;
36585;SDS011;22591;48.314;11.562;2022-11-10T02:15:37;73.55;;;31.75;;
36585;SDS011;22591;48.314;11.562;2022-11-10T02:18:03;17.60;;;11.07;;
36585;SDS011;22591;48.314;11.562;2022-11-10T02:20:29;10.90;;;6.38;;
36585;SDS011;22591;48.314;11.562;2022-11-10T02:22:54;13.27;;;4.95;;
36585;SDS011;22591;48.314;11.562;2022-11-10T02:25:21;7.22;;;6.50;;
36585;SDS011;22591;48.314;11.562;2022-11-10T02:27:47;10.25;;;9.32;;
36585;SDS011;22591;48.314;11.562;2022-11-10T02:30:13;8.15;;;7.45;;
36585;SDS011;22591;48.314;11.562;2022-11-10T02:32:39;12.32;;;11.20;;
36585;SDS011;22591;48.314;11.562;2022-11-10T02:35:05;13.20;;;12.00;;
36585;SDS011;22591;48.314;11.562;2022-11-10T02:37:31;14.43;;;13.52;;
36585;SDS011;22591;48.314;11.562;2022-11-10T02:39:56;13.50;;;12.45;;
36585;SDS011;22591;48.314;11.562;2022-11-10T02:42:22;14.85;;;13.55;;
36585;SDS011;22591;48.314;11.562;2022-11-10T02:44:48;16.80;;;15.52;;
36585;SDS011;22591;48.314;11.562;2022-11-10T02:47:14;10.90;;;7.47;;
36585;SDS011;22591;48.314;11.562;2022-11-10T02:49:39;12.10;;;11.18;;
36585;SDS011;22591;48.314;11.562;2022-11-10T02:52:05;14.48;;;13.70;;
36585;SDS011;22591;48.314;11.562;2022-11-10T02:54:30;17.85;;;16.35;;
36585;SDS011;22591;48.314;11.562;2022-11-10T02:56:56;16.55;;;15.40;;
36585;SDS011;22591;48.314;11.562;2022-11-10T02:59:21;25.10;;;22.67;;
36585;SDS011;22591;48.314;11.562;2022-11-10T03:01:47;30.88;;;27.48;;
36585;SDS011;22591;48.314;11.562;2022-11-10T03:04:12;35.50;;;31.90;;
36585;SDS011;22591;48.314;11.562;2022-11-10T03:06:38;35.88;;;32.67;;
36585;SDS011;22591;48.314;11.562;2022-11-10T03:09:03;31.17;;;28.58;;
36585;SDS011;22591;48.314;11.562;2022-11-10T03:11:29;28.27;;;26.33;;
36585;SDS011;22591;48.314;11.562;2022-11-10T03:13:54;24.80;;;22.88;;
36585;SDS011;22591;48.314;11.562;2022-11-10T03:16:20;29.98;;;27.17;;
36585;SDS011;22591;48.314;11.562;2022-11-10T03:18:45;29.33;;;27.50;;
36585;SDS011;22591;48.314;11.562;2022-11-10T03:21:11;27.02;;;25.40;;
36585;SDS011;22591;48.314;11.562;2022-11-10T03:23:37;29.13;;;27.15;;
36585;SDS011;22591;48.314;11.562;2022-11-10T03:26:03;28.27;;;26.30;;
36585;SDS011;22591;48.314;11.562;2022-11-10T03:28:29;33.80;;;31.75;;
36585;SDS011;22591;48.314;11.562;2022-11-10T03:30:55;31.23;;;28.45;;
36585;SDS011;22591;48.314;11.562;2022-11-10T03:33:20;29.27;;;27.55;;
36585;SDS011;22591;48.314;11.562;2022-11-10T03:35:46;27.58;;;25.85;;
36585;SDS011;22591;48.314;11.562;2022-11-10T03:38:12;28.50;;;26.85;;
36585;SDS011;22591;48.314;11.562;2022-11-10T03:40:37;30.90;;;28.65;;
36585;SDS011;22591;48.314;11.562;2022-11-10T03:43:03;28.92;;;26.95;;
36585;SDS011;22591;48.314;11.562;2022-11-10T03:45:28;36.38;;;33.75;;
36585;SDS011;22591;48.314;11.562;2022-11-10T03:47:54;35.90;;;33.53;;
36585;SDS011;22591;48.314;11.562;2022-11-10T03:50:19;32.67;;;30.33;;
36585;SDS011;22591;48.314;11.562;2022-11-10T03:52:45;31.25;;;29.45;;
36585;SDS011;22591;48.314;11.562;2022-11-10T03:55:12;34.72;;;32.70;;
36585;SDS011;22591;48.314;11.562;2022-11-10T03:57:39;34.45;;;31.77;;
36585;SDS011;22591;48.314;11.562;2022-11-10T04:00:05;38.92;;;36.42;;
36585;SDS011;22591;48.314;11.562;2022-11-10T04:02:31;36.08;;;33.88;;
36585;SDS011;22591;48.314;11.562;2022-11-10T04:04:57;62.35;;;58.88;;
36585;SDS011;22591;48.314;11.562;2022-11-10T04:07:41;54.33;;;51.03;;
36585;SDS011;22591;48.314;11.562;2022-11-10T04:10:26;56.30;;;53.15;;
36585;SDS011;22591;48.314;11.562;2022-11-10T04:12:51;52.35;;;49.47;;
36585;SDS011;22591;48.314;11.562;2022-11-10T04:15:36;58.28;;;54.47;;
36585;SDS011;22591;48.314;11.562;2022-11-10T04:20:46;58.28;;;54.78;;
36585;SDS011;22591;48.314;11.562;2022-11-10T04:23:12;63.45;;;60.15;;
36585;SDS011;22591;48.314;11.562;2022-11-10T04:25:51;65.20;;;61.35;;
36585;SDS011;22591;48.314;11.562;2022-11-10T04:28:38;62.28;;;58.85;;
36585;SDS011;22591;48.314;11.562;2022-11-10T04:31:04;69.00;;;65.20;;
36585;SDS011;22591;48.314;11.562;2022-11-10T04:33:30;70.70;;;66.40;;
36585;SDS011;22591;48.314;11.562;2022-11-10T04:35:56;77.45;;;72.90;;
36585;SDS011;22591;48.314;11.562;2022-11-10T04:38:21;73.88;;;69.75;;
36585;SDS011;22591;48.314;11.562;2022-11-10T04:40:47;72.50;;;68.38;;
36585;SDS011;22591;48.314;11.562;2022-11-10T04:43:13;79.28;;;74.55;;
36585;SDS011;22591;48.314;11.562;2022-11-10T04:45:38;67.18;;;63.45;;
36585;SDS011;22591;48.314;11.562;2022-11-10T04:48:04;81.57;;;76.95;;
36585;SDS011;22591;48.314;11.562;2022-11-10T04:50:30;71.93;;;67.57;;
36585;SDS011;22591;48.314;11.562;2022-11-10T04:52:55;78.55;;;73.80;;
36585;SDS011;22591;48.314;11.562;2022-11-10T04:55:21;79.38;;;74.90;;
36585;SDS011;22591;48.314;11.562;2022-11-10T04:57:46;78.28;;;73.95;;
36585;SDS011;22591;48.314;11.562;2022-11-10T05:00:12;81.60;;;76.30;;
36585;SDS011;22591;48.314;11.562;2022-11-10T05:02:38;78.45;;;74.15;;
36585;SDS011;22591;48.314;11.562;2022-11-10T05:05:03;72.68;;;68.47;;
36585;SDS011;22591;48.314;11.562;2022-11-10T05:07:29;73.90;;;70.05;;
36585;SDS011;22591;48.314;11.562;2022-11-10T05:09:55;76.80;;;71.97;;
36585;SDS011;22591;48.314;11.562;2022-11-10T05:12:20;61.95;;;58.22;;
36585;SDS011;22591;48.314;11.562;2022-11-10T05:14:46;71.95;;;67.80;;
36585;SDS011;22591;48.314;11.562;2022-11-10T05:17:11;71.40;;;67.05;;
36585;SDS011;22591;48.314;11.562;2022-11-10T05:19:37;73.28;;;68.78;;
36585;SDS011;22591;48.314;11.562;2022-11-10T05:22:02;77.97;;;73.50;;
36585;SDS011;22591;48.314;11.562;2022-11-10T05:24:28;76.30;;;71.40;;
36585;SDS011;22591;48.314;11.562;2022-11-10T05:26:53;82.22;;;76.63;;
36585;SDS011;22591;48.314;11.562;2022-11-10T05:29:19;85.32;;;80.05;;
36585;SDS011;22591;48.314;11.562;2022-11-10T05:31:44;82.53;;;77.10;;
36585;SDS011;22591;48.314;11.562;2022-11-10T05:34:10;81.53;;;75.90;;
36585;SDS011;22591;48.314;11.562;2022-11-10T05:36:35;84.70;;;79.25;;
36585;SDS011;22591;48.314;11.562;2022-11-10T05:39:01;86.47;;;80.95;;
36585;SDS011;22591;48.314;11.562;2022-11-10T05:41:27;90.75;;;84.70;;
36585;SDS011;22591;48.314;11.562;2022-11-10T05:43:52;83.80;;;78.20;;
36585;SDS011;22591;48.314;11.562;2022-11-10T05:46:18;85.90;;;80.03;;
36585;SDS011;22591;48.314;11.562;2022-11-10T05:48:43;90.32;;;84.28;;
36585;SDS011;22591;48.314;11.562;2022-11-10T05:51:10;93.85;;;87.40;;
36585;SDS011;22591;48.314;11.562;2022-11-10T05:53:36;90.68;;;84.10;;
36585;SDS011;22591;48.314;11.562;2022-11-10T05:56:01;90.10;;;83.32;;
36585;SDS011;22591;48.314;11.562;2022-11-10T05:58:28;94.90;;;88.45;;
36585;SDS011;22591;48.314;11.562;2022-11-10T06:00:54;92.85;;;85.90;;
36585;SDS011;22591;48.314;11.562;2022-11-10T06:03:22;95.35;;;88.13;;
36585;SDS011;22591;48.314;11.562;2022-11-10T06:05:49;97.43;;;90.25;;
36585;SDS011;22591;48.314;11.562;2022-11-10T06:08:18;101.60;;;94.22;;
36585;SDS011;22591;48.314;11.562;2022-11-10T06:10:46;105.13;;;96.45;;
36585;SDS011;22591;48.314;11.562;2022-11-10T06:13:14;103.35;;;94.80;;
36585;SDS011;22591;48.314;11.562;2022-11-10T06:15:40;102.28;;;94.30;;
36585;SDS011;22591;48.314;11.562;2022-11-10T06:18:07;103.78;;;95.45;;
36585;SDS011;22591;48.314;11.562;2022-11-10T06:20:34;103.70;;;95.13;;
36585;SDS011;22591;48.314;11.562;2022-11-10T06:23:09;101.03;;;93.18;;
36585;SDS011;22591;48.314;11.562;2022-11-10T06:25:40;96.07;;;88.85;;
36585;SDS011;22591;48.314;11.562;2022-11-10T06:28:07;98.38;;;90.82;;
36585;SDS011;22591;48.314;11.562;2022-11-10T06:30:36;106.63;;;97.63;;
36585;SDS011;22591;48.314;11.562;2022-11-10T06:33:05;96.47;;;89.28;;
36585;SDS011;22591;48.314;11.562;2022-11-10T06:35:32;102.07;;;94.65;;
36585;SDS011;22591;48.314;11.562;2022-11-10T06:38:09;99.90;;;92.07;;
36585;SDS011;22591;48.314;11.562;2022-11-10T06:40:38;98.35;;;90.50;;
36585;SDS011;22591;48.314;11.562;2022-11-10T06:43:04;96.30;;;88.32;;
36585;SDS011;22591;48.314;11.562;2022-11-10T06:45:32;104.18;;;94.78;;
36585;SDS011;22591;48.314;11.562;2022-11-10T06:47:59;101.45;;;93.38;;
36585;SDS011;22591;48.314;11.562;2022-11-10T06:50:38;100.55;;;92.82;;
36585;SDS011;22591;48.314;11.562;2022-11-10T06:53:05;100.65;;;92.90;;
36585;SDS011;22591;48.314;11.562;2022-11-10T06:55:32;98.15;;;89.65;;
36585;SDS011;22591;48.314;11.562;2022-11-10T06:58:00;96.38;;;88.38;;
36585;SDS011;22591;48.314;11.562;2022-11-10T07:00:27;98.38;;;90.85;;
36585;SDS011;22591;48.314;11.562;2022-11-10T07:03:03;99.20;;;91.38;;
36585;SDS011;22591;48.314;11.562;2022-11-10T07:05:32;97.30;;;89.35;;
36585;SDS011;22591;48.314;11.562;2022-11-10T07:08:08;98.57;;;91.55;;
36585;SDS011;22591;48.314;11.562;2022-11-10T07:10:52;100.07;;;91.90;;
36585;SDS011;22591;48.314;11.562;2022-11-10T07:13:23;96.25;;;89.20;;
36585;SDS011;22591;48.314;11.562;2022-11-10T07:15:49;98.03;;;90.80;;
36585;SDS011;22591;48.314;11.562;2022-11-10T07:18:17;96.15;;;88.78;;
36585;SDS011;22591;48.314;11.562;2022-11-10T07:20:44;104.97;;;96.78;;
36585;SDS011;22591;48.314;11.562;2022-11-10T07:23:12;97.78;;;90.45;;
36585;SDS011;22591;48.314;11.562;2022-11-10T07:25:40;97.78;;;90.72;;
36585;SDS011;22591;48.314;11.562;2022-11-10T07:28:07;90.22;;;84.05;;
36585;SDS011;22591;48.314;11.562;2022-11-10T07:30:37;92.68;;;86.32;;
36585;SDS011;22591;48.314;11.562;2022-11-10T07:33:24;83.22;;;77.28;;
36585;SDS011;22591;48.314;11.562;2022-11-10T07:35:51;73.25;;;68.32;;
36585;SDS011;22591;48.314;11.562;2022-11-10T07:38:21;75.43;;;69.83;;
36585;SDS011;22591;48.314;11.562;2022-11-10T07:40:54;79.78;;;74.55;;
36585;SDS011;22591;48.314;11.562;2022-11-10T07:43:23;77.90;;;72.72;;
36585;SDS011;22591;48.314;11.562;2022-11-10T07:45:51;82.35;;;76.38;;
36585;SDS011;22591;48.314;11.562;2022-11-10T07:48:19;85.68;;;80.13;;
36585;SDS011;22591;48.314;11.562;2022-11-10T07:50:49;92.47;;;85.43;;
36585;SDS011;22591;48.314;11.562;2022-11-10T07:53:18;102.47;;;93.90;;
36585;SDS011;22591;48.314;11.562;2022-11-10T07:55:51;96.38;;;89.22;;
36585;SDS011;22591;48.314;11.562;2022-11-10T07:58:20;87.88;;;81.78;;
36585;SDS011;22591;48.314;11.562;2022-11-10T08:00:49;90.82;;;84.63;;
36585;SDS011;22591;48.314;11.562;2022-11-10T08:03:19;85.63;;;79.13;;
36585;SDS011;22591;48.314;11.562;2022-11-10T08:05:46;74.80;;;69.82;;
36585;SDS011;22591;48.314;11.562;2022-11-10T08:08:14;77.97;;;72.70;;
36585;SDS011;22591;48.314;11.562;2022-11-10T08:10:43;66.88;;;62.47;;
36585;SDS011;22591;48.314;11.562;2022-11-10T08:13:11;70.93;;;66.45;;
36585;SDS011;22591;48.314;11.562;2022-11-10T08:15:39;65.68;;;61.15;;
36585;SDS011;22591;48.314;11.562;2022-11-10T08:18:06;79.35;;;74.32;;
36585;SDS011;22591;48.314;11.562;2022-11-10T08:20:40;74.75;;;69.40;;
36585;SDS011;22591;48.314;11.562;2022-11-10T08:23:07;59.33;;;55.17;;
36585;SDS011;22591;48.314;11.562;2022-11-10T08:25:35;46.92;;;43.10;;
36585;SDS011;22591;48.314;11.562;2022-11-10T08:28:09;47.97;;;44.80;;
36585;SDS011;22591;48.314;11.562;2022-11-10T08:30:39;35.40;;;32.95;;
36585;SDS011;22591;48.314;11.562;2022-11-10T08:33:09;36.20;;;33.35;;
36585;SDS011;22591;48.314;11.562;2022-11-10T08:35:45;23.65;;;21.75;;
36585;SDS011;22591;48.314;11.562;2022-11-10T08:38:21;21.33;;;19.50;;
36585;SDS011;22591;48.314;11.562;2022-11-10T08:40:50;18.90;;;17.30;;
36585;SDS011;22591;48.314;11.562;2022-11-10T08:43:20;14.55;;;12.98;;
36585;SDS011;22591;48.314;11.562;2022-11-10T08:45:47;12.27;;;11.05;;
36585;SDS011;22591;48.314;11.562;2022-11-10T08:48:16;12.82;;;9.88;;
36585;SDS011;22591;48.314;11.562;2022-11-10T08:50:45;12.30;;;9.35;;
36585;SDS011;22591;48.314;11.562;2022-11-10T08:53:13;10.10;;;9.20;;
36585;SDS011;22591;48.314;11.562;2022-11-10T08:55:42;8.75;;;7.60;;
36585;SDS011;22591;48.314;11.562;2022-11-10T08:58:21;8.75;;;6.85;;
36585;SDS011;22591;48.314;11.562;2022-11-10T09:00:48;9.60;;;5.80;;
36585;SDS011;22591;48.314;11.562;2022-11-10T09:03:21;8.35;;;5.63;;
36585;SDS011;22591;48.314;11.562;2022-11-10T09:05:51;9.00;;;6.45;;
36585;SDS011;22591;48.314;11.562;2022-11-10T09:08:18;5.47;;;4.97;;
36585;SDS011;22591;48.314;11.562;2022-11-10T09:10:47;9.93;;;4.95;;
36585;SDS011;22591;48.314;11.562;2022-11-10T09:13:16;5.00;;;4.38;;
36585;SDS011;22591;48.314;11.562;2022-11-10T09:15:44;5.63;;;4.32;;
36585;SDS011;22591;48.314;11.562;2022-11-10T09:18:11;7.45;;;4.53;;
36585;SDS011;22591;48.314;11.562;2022-11-10T09:20:39;4.50;;;3.97;;
36585;SDS011;22591;48.314;11.562;2022-11-10T09:23:06;4.90;;;4.20;;
36585;SDS011;22591;48.314;11.562;2022-11-10T09:25:47;3.95;;;3.60;;
36585;SDS011;22591;48.314;11.562;2022-11-10T09:28:18;6.53;;;3.70;;
36585;SDS011;22591;48.314;11.562;2022-11-10T09:30:48;4.57;;;3.05;;
36585;SDS011;22591;48.314;11.562;2022-11-10T09:33:16;5.93;;;4.68;;
36585;SDS011;22591;48.314;11.562;2022-11-10T09:35:43;5.53;;;4.07;;
36585;SDS011;22591;48.314;11.562;2022-11-10T09:38:10;8.18;;;3.55;;
36585;SDS011;22591;48.314;11.562;2022-11-10T09:46:30;3.20;;;2.75;;
36585;SDS011;22591;48.314;11.562;2022-11-10T09:52:04;4.22;;;2.55;;
36585;SDS011;22591;48.314;11.562;2022-11-10T09:57:19;3.85;;;2.47;;
36585;SDS011;22591;48.314;11.562;2022-11-10T09:59:51;4.30;;;2.83;;
36585;SDS011;22591;48.314;11.562;2022-11-10T10:08:10;6.20;;;2.22;;
36585;SDS011;22591;48.314;11.562;2022-11-10T10:14:52;4.30;;;2.17;;
36585;SDS011;22591;48.314;11.562;2022-11-10T10:20:51;4.90;;;2.15;;
36585;SDS011;22591;48.314;11.562;2022-11-10T10:23:50;3.00;;;1.92;;
36585;SDS011;22591;48.314;11.562;2022-11-10T10:26:29;5.38;;;2.30;;
36585;SDS011;22591;48.314;11.562;2022-11-10T10:29:13;4.30;;;2.28;;
36585;SDS011;22591;48.314;11.562;2022-11-10T10:31:51;4.07;;;2.20;;
36585;SDS011;22591;48.314;11.562;2022-11-10T10:34:22;6.38;;;2.55;;
36585;SDS011;22591;48.314;11.562;2022-11-10T10:36:52;4.45;;;2.03;;
36585;SDS011;22591;48.314;11.562;2022-11-10T10:42:27;6.15;;;2.38;;
36585;SDS011;22591;48.314;11.562;2022-11-10T10:48:45;6.03;;;2.42;;
36585;SDS011;22591;48.314;11.562;2022-11-10T10:50:54;2.92;;;1.98;;
36585;SDS011;22591;48.314;11.562;2022-11-10T10:53:23;4.35;;;2.00;;
36585;SDS011;22591;48.314;11.562;2022-11-10T10:58:59;2.33;;;1.75;;
36585;SDS011;22591;48.314;11.562;2022-11-10T11:01:36;4.85;;;2.00;;
36585;SDS011;22591;48.314;11.562;2022-11-10T11:04:40;4.32;;;2.38;;
36585;SDS011;22591;48.314;11.562;2022-11-10T11:07:21;6.32;;;2.08;;
36585;SDS011;22591;48.314;11.562;2022-11-10T11:09:49;3.80;;;1.95;;
36585;SDS011;22591;48.314;11.562;2022-11-10T11:14:46;6.35;;;1.95;;
36585;SDS011;22591;48.314;11.562;2022-11-10T11:17:17;3.95;;;1.90;;
36585;SDS011;22591;48.314;11.562;2022-11-10T11:19:47;3.22;;;1.90;;
36585;SDS011;22591;48.314;11.562;2022-11-10T11:25:40;7.85;;;1.63;;
36585;SDS011;22591;48.314;11.562;2022-11-10T11:28:26;2.83;;;1.80;;
36585;SDS011;22591;48.314;11.562;2022-11-10T11:48:20;2.03;;;1.70;;
36585;SDS011;22591;48.314;11.562;2022-11-10T11:56:30;2.50;;;1.80;;
36585;SDS011;22591;48.314;11.562;2022-11-10T11:59:07;5.22;;;1.40;;
36585;SDS011;22591;48.314;11.562;2022-11-10T12:05:01;3.25;;;1.27;;
36585;SDS011;22591;48.314;11.562;2022-11-10T12:07:56;2.95;;;1.38;;
36585;SDS011;22591;48.314;11.562;2022-11-10T12:10:30;2.50;;;1.20;;
36585;SDS011;22591;48.314;11.562;2022-11-10T12:13:17;3.10;;;1.40;;
36585;SDS011;22591;48.314;11.562;2022-11-10T12:18:34;5.10;;;1.17;;
36585;SDS011;22591;48.314;11.562;2022-11-10T12:23:34;2.97;;;1.10;;
36585;SDS011;22591;48.314;11.562;2022-11-10T12:26:19;2.03;;;1.42;;
36585;SDS011;22591;48.314;11.562;2022-11-10T12:29:02;3.67;;;1.45;;
36585;SDS011;22591;48.314;11.562;2022-11-10T12:31:38;5.90;;;1.38;;
36585;SDS011;22591;48.314;11.562;2022-11-10T12:34:10;1.35;;;1.20;;
36585;SDS011;22591;48.314;11.562;2022-11-10T12:36:43;1.40;;;1.30;;
36585;SDS011;22591;48.314;11.562;2022-11-10T12:39:20;2.58;;;1.58;;
36585;SDS011;22591;48.314;11.562;2022-11-10T12:41:56;1.92;;;0.73;;
36585;SDS011;22591;48.314;11.562;2022-11-10T12:47:04;4.40;;;1.40;;
36585;SDS011;22591;48.314;11.562;2022-11-10T12:49:37;1.60;;;1.13;;
36585;SDS011;22591;48.314;11.562;2022-11-10T12:54:41;3.90;;;1.40;;
36585;SDS011;22591;48.314;11.562;2022-11-10T12:57:24;3.88;;;1.60;;
36585;SDS011;22591;48.314;11.562;2022-11-10T13:02:33;1.40;;;0.98;;
36585;SDS011;22591;48.314;11.562;2022-11-10T13:17:59;3.70;;;1.65;;
36585;SDS011;22591;48.314;11.562;2022-11-10T13:23:25;4.95;;;1.63;;
36585;SDS011;22591;48.314;11.562;2022-11-10T13:26:04;2.05;;;1.38;;
36585;SDS011;22591;48.314;11.562;2022-11-10T13:28:55;6.63;;;1.65;;
36585;SDS011;22591;48.314;11.562;2022-11-10T13:44:31;2.97;;;1.02;;
36585;SDS011;22591;48.314;11.562;2022-11-10T13:52:29;3.72;;;1.17;;
36585;SDS011;22591;48.314;11.562;2022-11-10T13:57:55;3.58;;;1.30;;
36585;SDS011;22591;48.314;11.562;2022-11-10T14:00:35;2.30;;;1.23;;
36585;SDS011;22591;48.314;11.562;2022-11-10T14:03:04;1.58;;;1.17;;
36585;SDS011;22591;48.314;11.562;2022-11-10T14:08:06;4.07;;;1.55;;
36585;SDS011;22591;48.314;11.562;2022-11-10T14:10:57;1.48;;;1.27;;
36585;SDS011;22591;48.314;11.562;2022-11-10T14:13:45;2.30;;;1.38;;
36585;SDS011;22591;48.314;11.562;2022-11-10T14:16:26;3.13;;;1.05;;
36585;SDS011;22591;48.314;11.562;2022-11-10T14:19:06;4.68;;;1.30;;
36585;SDS011;22591;48.314;11.562;2022-11-10T14:22:07;3.33;;;1.85;;
36585;SDS011;22591;48.314;11.562;2022-11-10T14:24:41;1.15;;;1.05;;
36585;SDS011;22591;48.314;11.562;2022-11-10T14:27:31;2.15;;;1.10;;
36585;SDS011;22591;48.314;11.562;2022-11-10T14:30:18;7.20;;;1.42;;
36585;SDS011;22591;48.314;11.562;2022-11-10T14:35:21;3.03;;;1.40;;
36585;SDS011;22591;48.314;11.562;2022-11-10T14:37:50;2.38;;;1.67;;
36585;SDS011;22591;48.314;11.562;2022-11-10T14:40:17;5.57;;;1.40;;
36585;SDS011;22591;48.314;11.562;2022-11-10T14:42:44;4.53;;;1.88;;
36585;SDS011;22591;48.314;11.562;2022-11-10T14:45:15;3.78;;;1.42;;
36585;SDS011;22591;48.314;11.562;2022-11-10T14:47:47;6.13;;;1.67;;
36585;SDS011;22591;48.314;11.562;2022-11-10T14:50:24;3.13;;;1.20;;
36585;SDS011;22591;48.314;11.562;2022-11-10T14:52:53;1.63;;;1.30;;
36585;SDS011;22591;48.314;11.562;2022-11-10T14:55:23;2.28;;;1.45;;
36585;SDS011;22591;48.314;11.562;2022-11-10T14:57:57;8.48;;;1.83;;
36585;SDS011;22591;48.314;11.562;2022-11-10T15:00:35;3.53;;;1.77;;
36585;SDS011;22591;48.314;11.562;2022-11-10T15:03:02;3.33;;;1.38;;
36585;SDS011;22591;48.314;11.562;2022-11-10T15:05:30;4.93;;;1.70;;
36585;SDS011;22591;48.314;11.562;2022-11-10T15:07:56;3.60;;;1.33;;
36585;SDS011;22591;48.314;11.562;2022-11-10T15:12:57;2.83;;;1.35;;
36585;SDS011;22591;48.314;11.562;2022-11-10T15:15:49;2.65;;;1.90;;
36585;SDS011;22591;48.314;11.562;2022-11-10T15:18:22;1.75;;;1.42;;
36585;SDS011;22591;48.314;11.562;2022-11-10T15:20:57;4.03;;;1.45;;
36585;SDS011;22591;48.314;11.562;2022-11-10T15:23:28;3.05;;;1.40;;
36585;SDS011;22591;48.314;11.562;2022-11-10T15:25:56;1.60;;;1.35;;
36585;SDS011;22591;48.314;11.562;2022-11-10T15:28:23;3.60;;;1.23;;
36585;SDS011;22591;48.314;11.562;2022-11-10T15:30:59;3.10;;;1.70;;
36585;SDS011;22591;48.314;11.562;2022-11-10T15:33:29;2.45;;;1.50;;
36585;SDS011;22591;48.314;11.562;2022-11-10T15:36:12;3.35;;;1.35;;
36585;SDS011;22591;48.314;11.562;2022-11-10T15:38:39;7.03;;;2.03;;
36585;SDS011;22591;48.314;11.562;2022-11-10T15:43:45;3.65;;;1.60;;
36585;SDS011;22591;48.314;11.562;2022-11-10T15:46:15;3.10;;;1.77;;
36585;SDS011;22591;48.314;11.562;2022-11-10T15:48:45;4.18;;;1.50;;
36585;SDS011;22591;48.314;11.562;2022-11-10T15:51:14;2.65;;;1.98;;
36585;SDS011;22591;48.314;11.562;2022-11-10T15:53:43;1.67;;;1.58;;
36585;SDS011;22591;48.314;11.562;2022-11-10T15:56:15;3.22;;;1.85;;
36585;SDS011;22591;48.314;11.562;2022-11-10T15:58:44;2.38;;;1.45;;
36585;SDS011;22591;48.314;11.562;2022-11-10T16:01:11;2.10;;;1.77;;
36585;SDS011;22591;48.314;11.562;2022-11-10T16:03:38;4.07;;;1.98;;
36585;SDS011;22591;48.314;11.562;2022-11-10T16:06:04;4.32;;;2.25;;
36585;SDS011;22591;48.314;11.562;2022-11-10T16:08:30;5.78;;;1.75;;
36585;SDS011;22591;48.314;11.562;2022-11-10T16:10:56;4.20;;;1.70;;
36585;SDS011;22591;48.314;11.562;2022-11-10T16:13:23;3.47;;;2.42;;
36585;SDS011;22591;48.314;11.562;2022-11-10T16:15:50;2.90;;;2.25;;
36585;SDS011;22591;48.314;11.562;2022-11-10T16:18:18;2.90;;;1.98;;
36585;SDS011;22591;48.314;11.562;2022-11-10T16:20:45;5.80;;;3.40;;
36585;SDS011;22591;48.314;11.562;2022-11-10T16:23:12;3.83;;;3.03;;
36585;SDS011;22591;48.314;11.562;2022-11-10T16:25:37;5.38;;;3.60;;
36585;SDS011;22591;48.314;11.562;2022-11-10T16:28:03;4.53;;;3.40;;
36585;SDS011;22591;48.314;11.562;2022-11-10T16:30:31;6.97;;;3.30;;
36585;SDS011;22591;48.314;11.562;2022-11-10T16:32:57;5.88;;;3.60;;
36585;SDS011;22591;48.314;11.562;2022-11-10T16:35:23;6.65;;;3.70;;
36585;SDS011;22591;48.314;11.562;2022-11-10T16:37:49;5.20;;;2.67;;
36585;SDS011;22591;48.314;11.562;2022-11-10T16:40:16;5.40;;;2.95;;
36585;SDS011;22591;48.314;11.562;2022-11-10T16:42:43;3.05;;;2.30;;
36585;SDS011;22591;48.314;11.562;2022-11-10T16:45:16;3.80;;;2.50;;